sensor_id;sensor_type;location;lat;lon;timestamp;P1;durP1;ratioP1;P2;durP2;ratioP2
39294;SDS011;52361;52.100;5.248;2023-05-28T00:00:37;12.0;;;3.6;;
39294;SDS011;52361;52.100;5.248;2023-05-28T00:02:13;9.71;;;4.1;;
39294;SDS011;52361;52.100;5.248;2023-05-28T00:03:49;12.5;;;3.9;;
39294;SDS011;52361;52.100;5.248;2023-05-28T00:05:26;8.71;;;3.3;;
39294;SDS011;52361;52.100;5.248;2023-05-28T00:08:38;8.2;;;3.4;;
39294;SDS011;52361;52.100;5.248;2023-05-28T00:10:14;9.21;;;4.0;;
39294;SDS011;52361;52.100;5.248;2023-05-28T00:15:04;6.0;;;3.7;;
39294;SDS011;52361;52.100;5.248;2023-05-28T00:16:41;8.0;;;4.61;;
39294;SDS011;52361;52.100;5.248;2023-05-28T00:18:17;11.5;;;4.5;;
39294;SDS011;52361;52.100;5.248;2023-05-28T00:21:29;10.0;;;3.4;;
39294;SDS011;52361;52.100;5.248;2023-05-28T00:23:06;11.8;;;3.6;;
39294;SDS011;52361;52.100;5.248;2023-05-28T00:24:42;11.1;;;4.7;;
39294;SDS011;52361;52.100;5.248;2023-05-28T00:26:18;7.7;;;3.9;;
39294;SDS011;52361;52.100;5.248;2023-05-28T00:29:31;16.3;;;5.11;;
39294;SDS011;52361;52.100;5.248;2023-05-28T00:31:07;13.2;;;3.8;;
39294;SDS011;52361;52.100;5.248;2023-05-28T00:32:43;12.1;;;3.7;;
39294;SDS011;52361;52.100;5.248;2023-05-28T00:35:55;10.9;;;3.7;;
39294;SDS011;52361;52.100;5.248;2023-05-28T00:37:31;9.1;;;4.1;;
39294;SDS011;52361;52.100;5.248;2023-05-28T00:39:08;12.9;;;3.8;;
39294;SDS011;52361;52.100;5.248;2023-05-28T00:42:20;11.2;;;4.41;;
39294;SDS011;52361;52.100;5.248;2023-05-28T00:45:32;18.2;;;3.8;;
39294;SDS011;52361;52.100;5.248;2023-05-28T00:47:08;8.31;;;4.41;;
39294;SDS011;52361;52.100;5.248;2023-05-28T00:50:21;13.2;;;3.6;;
39294;SDS011;52361;52.100;5.248;2023-05-28T00:51:59;15.0;;;4.1;;
39294;SDS011;52361;52.100;5.248;2023-05-28T00:53:37;11.5;;;4.41;;
39294;SDS011;52361;52.100;5.248;2023-05-28T00:56:52;14.6;;;3.8;;
39294;SDS011;52361;52.100;5.248;2023-05-28T00:58:29;12.9;;;5.0;;
39294;SDS011;52361;52.100;5.248;2023-05-28T01:00:07;9.31;;;3.9;;
39294;SDS011;52361;52.100;5.248;2023-05-28T01:03:23;12.4;;;5.0;;
39294;SDS011;52361;52.100;5.248;2023-05-28T01:04:59;12.8;;;4.41;;
39294;SDS011;52361;52.100;5.248;2023-05-28T01:06:36;14.3;;;4.1;;
39294;SDS011;52361;52.100;5.248;2023-05-28T01:08:14;11.4;;;4.2;;
39294;SDS011;52361;52.100;5.248;2023-05-28T01:11:27;11.2;;;4.0;;
39294;SDS011;52361;52.100;5.248;2023-05-28T01:13:05;16.2;;;3.8;;
39294;SDS011;52361;52.100;5.248;2023-05-28T01:14:44;15.3;;;4.5;;
39294;SDS011;52361;52.100;5.248;2023-05-28T01:17:58;11.0;;;3.7;;
39294;SDS011;52361;52.100;5.248;2023-05-28T01:19:36;9.5;;;4.3;;
39294;SDS011;52361;52.100;5.248;2023-05-28T01:21:12;10.5;;;4.8;;
39294;SDS011;52361;52.100;5.248;2023-05-28T01:22:52;11.2;;;4.1;;
39294;SDS011;52361;52.100;5.248;2023-05-28T01:26:09;13.1;;;4.61;;
39294;SDS011;52361;52.100;5.248;2023-05-28T01:27:46;9.6;;;4.3;;
39294;SDS011;52361;52.100;5.248;2023-05-28T01:29:23;11.4;;;4.1;;
39294;SDS011;52361;52.100;5.248;2023-05-28T01:32:36;8.1;;;3.2;;
39294;SDS011;52361;52.100;5.248;2023-05-28T01:34:12;11.5;;;3.7;;
39294;SDS011;52361;52.100;5.248;2023-05-28T01:35:49;10.7;;;5.11;;
39294;SDS011;52361;52.100;5.248;2023-05-28T01:37:30;10.1;;;4.3;;
39294;SDS011;52361;52.100;5.248;2023-05-28T01:40:47;11.7;;;4.8;;
39294;SDS011;52361;52.100;5.248;2023-05-28T01:42:25;10.5;;;4.0;;
39294;SDS011;52361;52.100;5.248;2023-05-28T01:44:03;11.7;;;5.11;;
39294;SDS011;52361;52.100;5.248;2023-05-28T01:47:17;11.7;;;4.8;;
39294;SDS011;52361;52.100;5.248;2023-05-28T01:48:53;11.2;;;4.61;;
39294;SDS011;52361;52.100;5.248;2023-05-28T01:50:30;14.8;;;3.8;;
39294;SDS011;52361;52.100;5.248;2023-05-28T01:52:07;14.3;;;4.1;;
39294;SDS011;52361;52.100;5.248;2023-05-28T01:55:20;10.5;;;3.9;;
39294;SDS011;52361;52.100;5.248;2023-05-28T01:56:56;12.8;;;4.5;;
39294;SDS011;52361;52.100;5.248;2023-05-28T01:58:32;18.91;;;4.61;;
39294;SDS011;52361;52.100;5.248;2023-05-28T02:01:47;11.4;;;4.3;;
39294;SDS011;52361;52.100;5.248;2023-05-28T02:03:23;11.9;;;4.8;;
39294;SDS011;52361;52.100;5.248;2023-05-28T02:04:59;14.0;;;4.61;;
39294;SDS011;52361;52.100;5.248;2023-05-28T02:08:13;14.5;;;4.7;;
39294;SDS011;52361;52.100;5.248;2023-05-28T02:09:50;12.8;;;4.61;;
39294;SDS011;52361;52.100;5.248;2023-05-28T02:11:26;15.2;;;5.6;;
39294;SDS011;52361;52.100;5.248;2023-05-28T02:13:03;12.7;;;4.1;;
39294;SDS011;52361;52.100;5.248;2023-05-28T02:16:15;19.91;;;4.91;;
39294;SDS011;52361;52.100;5.248;2023-05-28T02:17:51;14.5;;;4.1;;
39294;SDS011;52361;52.100;5.248;2023-05-28T02:19:27;16.5;;;4.5;;
39294;SDS011;52361;52.100;5.248;2023-05-28T02:22:40;8.6;;;4.41;;
39294;SDS011;52361;52.100;5.248;2023-05-28T02:24:17;11.7;;;4.2;;
39294;SDS011;52361;52.100;5.248;2023-05-28T02:25:53;8.2;;;3.9;;
39294;SDS011;52361;52.100;5.248;2023-05-28T02:29:06;10.3;;;4.8;;
39294;SDS011;52361;52.100;5.248;2023-05-28T02:30:42;8.4;;;4.0;;
39294;SDS011;52361;52.100;5.248;2023-05-28T02:32:18;7.4;;;4.61;;
39294;SDS011;52361;52.100;5.248;2023-05-28T02:33:55;11.7;;;4.3;;
39294;SDS011;52361;52.100;5.248;2023-05-28T02:37:07;12.6;;;4.8;;
39294;SDS011;52361;52.100;5.248;2023-05-28T02:38:43;11.3;;;4.41;;
39294;SDS011;52361;52.100;5.248;2023-05-28T02:40:19;14.2;;;4.2;;
39294;SDS011;52361;52.100;5.248;2023-05-28T02:43:32;14.4;;;4.91;;
39294;SDS011;52361;52.100;5.248;2023-05-28T02:45:09;10.4;;;3.9;;
39294;SDS011;52361;52.100;5.248;2023-05-28T02:46:46;16.7;;;4.1;;
39294;SDS011;52361;52.100;5.248;2023-05-28T02:49:58;11.7;;;5.3;;
39294;SDS011;52361;52.100;5.248;2023-05-28T02:51:34;11.9;;;4.2;;
39294;SDS011;52361;52.100;5.248;2023-05-28T02:53:11;10.7;;;4.61;;
39294;SDS011;52361;52.100;5.248;2023-05-28T02:54:47;10.7;;;4.61;;
39294;SDS011;52361;52.100;5.248;2023-05-28T02:57:59;13.6;;;4.61;;
39294;SDS011;52361;52.100;5.248;2023-05-28T02:59:35;9.21;;;3.9;;
39294;SDS011;52361;52.100;5.248;2023-05-28T03:01:11;9.5;;;3.6;;
39294;SDS011;52361;52.100;5.248;2023-05-28T03:04:24;9.31;;;4.61;;
39294;SDS011;52361;52.100;5.248;2023-05-28T03:06:00;14.2;;;5.2;;
39294;SDS011;52361;52.100;5.248;2023-05-28T03:07:36;10.8;;;5.8;;
39294;SDS011;52361;52.100;5.248;2023-05-28T03:10:48;11.9;;;4.5;;
39294;SDS011;52361;52.100;5.248;2023-05-28T03:12:24;11.9;;;4.5;;
39294;SDS011;52361;52.100;5.248;2023-05-28T03:14:01;13.7;;;4.8;;
39294;SDS011;52361;52.100;5.248;2023-05-28T03:17:13;11.2;;;4.3;;
39294;SDS011;52361;52.100;5.248;2023-05-28T03:18:49;9.4;;;4.0;;
39294;SDS011;52361;52.100;5.248;2023-05-28T03:20:25;9.6;;;4.1;;
39294;SDS011;52361;52.100;5.248;2023-05-28T03:22:01;14.7;;;4.3;;
39294;SDS011;52361;52.100;5.248;2023-05-28T03:25:14;7.6;;;4.1;;
39294;SDS011;52361;52.100;5.248;2023-05-28T03:26:50;11.4;;;4.41;;
39294;SDS011;52361;52.100;5.248;2023-05-28T03:28:26;10.6;;;5.2;;
39294;SDS011;52361;52.100;5.248;2023-05-28T03:31:43;16.5;;;3.9;;
39294;SDS011;52361;52.100;5.248;2023-05-28T03:33:20;10.7;;;4.3;;
39294;SDS011;52361;52.100;5.248;2023-05-28T03:34:57;12.7;;;4.3;;
39294;SDS011;52361;52.100;5.248;2023-05-28T03:38:09;12.0;;;4.8;;
39294;SDS011;52361;52.100;5.248;2023-05-28T03:39:45;11.5;;;4.7;;
39294;SDS011;52361;52.100;5.248;2023-05-28T03:41:21;18.5;;;4.91;;
39294;SDS011;52361;52.100;5.248;2023-05-28T03:42:57;15.4;;;5.0;;
39294;SDS011;52361;52.100;5.248;2023-05-28T03:46:10;9.81;;;3.9;;
39294;SDS011;52361;52.100;5.248;2023-05-28T03:47:46;11.8;;;4.7;;
39294;SDS011;52361;52.100;5.248;2023-05-28T03:49:22;12.8;;;5.3;;
39294;SDS011;52361;52.100;5.248;2023-05-28T03:52:34;12.8;;;5.3;;
39294;SDS011;52361;52.100;5.248;2023-05-28T03:54:10;9.31;;;4.7;;
39294;SDS011;52361;52.100;5.248;2023-05-28T03:55:47;9.71;;;4.91;;
39294;SDS011;52361;52.100;5.248;2023-05-28T03:59:00;12.2;;;4.5;;
39294;SDS011;52361;52.100;5.248;2023-05-28T04:00:36;8.5;;;4.3;;
39294;SDS011;52361;52.100;5.248;2023-05-28T04:02:12;14.2;;;4.2;;
39294;SDS011;52361;52.100;5.248;2023-05-28T04:03:48;10.4;;;3.9;;
39294;SDS011;52361;52.100;5.248;2023-05-28T04:08:37;16.4;;;4.91;;
39294;SDS011;52361;52.100;5.248;2023-05-28T04:10:13;8.0;;;3.8;;
39294;SDS011;52361;52.100;5.248;2023-05-28T04:13:25;11.1;;;4.5;;
39294;SDS011;52361;52.100;5.248;2023-05-28T04:15:01;10.5;;;4.0;;
39294;SDS011;52361;52.100;5.248;2023-05-28T04:16:39;11.1;;;4.41;;
39294;SDS011;52361;52.100;5.248;2023-05-28T04:19:52;10.1;;;5.0;;
39294;SDS011;52361;52.100;5.248;2023-05-28T04:21:29;12.2;;;4.3;;
39294;SDS011;52361;52.100;5.248;2023-05-28T04:23:05;12.1;;;3.9;;
39294;SDS011;52361;52.100;5.248;2023-05-28T04:26:17;8.5;;;4.3;;
39294;SDS011;52361;52.100;5.248;2023-05-28T04:27:54;12.0;;;4.2;;
39294;SDS011;52361;52.100;5.248;2023-05-28T04:29:31;10.0;;;4.2;;
39294;SDS011;52361;52.100;5.248;2023-05-28T04:31:07;8.6;;;4.1;;
39294;SDS011;52361;52.100;5.248;2023-05-28T04:34:19;9.5;;;3.6;;
39294;SDS011;52361;52.100;5.248;2023-05-28T04:35:55;8.31;;;4.0;;
39294;SDS011;52361;52.100;5.248;2023-05-28T04:37:33;11.8;;;4.0;;
39294;SDS011;52361;52.100;5.248;2023-05-28T04:40:45;11.9;;;3.9;;
39294;SDS011;52361;52.100;5.248;2023-05-28T04:42:21;10.1;;;3.4;;
39294;SDS011;52361;52.100;5.248;2023-05-28T04:43:57;15.0;;;4.41;;
39294;SDS011;52361;52.100;5.248;2023-05-28T04:47:09;10.7;;;4.91;;
39294;SDS011;52361;52.100;5.248;2023-05-28T04:48:46;11.0;;;4.8;;
39294;SDS011;52361;52.100;5.248;2023-05-28T04:50:22;9.21;;;3.8;;
39294;SDS011;52361;52.100;5.248;2023-05-28T04:51:58;13.9;;;4.8;;
39294;SDS011;52361;52.100;5.248;2023-05-28T04:55:10;8.2;;;3.7;;
39294;SDS011;52361;52.100;5.248;2023-05-28T04:56:46;17.91;;;4.91;;
39294;SDS011;52361;52.100;5.248;2023-05-28T04:58:22;8.4;;;3.8;;
39294;SDS011;52361;52.100;5.248;2023-05-28T05:01:36;7.7;;;4.1;;
39294;SDS011;52361;52.100;5.248;2023-05-28T05:03:13;7.9;;;4.0;;
39294;SDS011;52361;52.100;5.248;2023-05-28T05:04:49;14.7;;;3.8;;
39294;SDS011;52361;52.100;5.248;2023-05-28T05:08:01;15.6;;;4.5;;
39294;SDS011;52361;52.100;5.248;2023-05-28T05:09:37;10.1;;;3.6;;
39294;SDS011;52361;52.100;5.248;2023-05-28T05:11:14;16.4;;;5.0;;
39294;SDS011;52361;52.100;5.248;2023-05-28T05:12:50;11.7;;;4.3;;
39294;SDS011;52361;52.100;5.248;2023-05-28T05:16:02;10.5;;;4.2;;
39294;SDS011;52361;52.100;5.248;2023-05-28T05:17:38;16.7;;;4.3;;
39294;SDS011;52361;52.100;5.248;2023-05-28T05:19:14;8.81;;;3.8;;
39294;SDS011;52361;52.100;5.248;2023-05-28T05:22:27;10.5;;;4.2;;
39294;SDS011;52361;52.100;5.248;2023-05-28T05:24:03;10.6;;;4.0;;
39294;SDS011;52361;52.100;5.248;2023-05-28T05:25:40;10.3;;;4.3;;
39294;SDS011;52361;52.100;5.248;2023-05-28T05:28:52;9.21;;;4.2;;
39294;SDS011;52361;52.100;5.248;2023-05-28T05:30:28;7.4;;;4.0;;
39294;SDS011;52361;52.100;5.248;2023-05-28T05:32:05;7.9;;;3.4;;
39294;SDS011;52361;52.100;5.248;2023-05-28T05:35:18;12.9;;;4.1;;
39294;SDS011;52361;52.100;5.248;2023-05-28T05:36:54;7.4;;;3.8;;
39294;SDS011;52361;52.100;5.248;2023-05-28T05:38:30;8.9;;;3.7;;
39294;SDS011;52361;52.100;5.248;2023-05-28T05:40:07;11.9;;;4.61;;
39294;SDS011;52361;52.100;5.248;2023-05-28T05:43:20;7.2;;;3.4;;
39294;SDS011;52361;52.100;5.248;2023-05-28T05:44:56;10.21;;;4.3;;
39294;SDS011;52361;52.100;5.248;2023-05-28T05:46:32;9.6;;;3.9;;
39294;SDS011;52361;52.100;5.248;2023-05-28T05:49:44;9.9;;;3.9;;
39294;SDS011;52361;52.100;5.248;2023-05-28T05:51:20;9.4;;;3.6;;
39294;SDS011;52361;52.100;5.248;2023-05-28T05:52:57;8.0;;;3.7;;
39294;SDS011;52361;52.100;5.248;2023-05-28T05:56:09;7.9;;;4.41;;
39294;SDS011;52361;52.100;5.248;2023-05-28T05:57:46;8.1;;;4.61;;
39294;SDS011;52361;52.100;5.248;2023-05-28T05:59:22;8.9;;;4.1;;
39294;SDS011;52361;52.100;5.248;2023-05-28T06:00:58;10.8;;;4.2;;
39294;SDS011;52361;52.100;5.248;2023-05-28T06:04:11;8.0;;;3.7;;
39294;SDS011;52361;52.100;5.248;2023-05-28T06:05:47;13.3;;;4.7;;
39294;SDS011;52361;52.100;5.248;2023-05-28T06:07:26;10.0;;;4.61;;
39294;SDS011;52361;52.100;5.248;2023-05-28T06:10:38;9.6;;;4.2;;
39294;SDS011;52361;52.100;5.248;2023-05-28T06:12:15;11.1;;;3.7;;
39294;SDS011;52361;52.100;5.248;2023-05-28T06:13:51;16.9;;;4.5;;
39294;SDS011;52361;52.100;5.248;2023-05-28T06:17:04;12.3;;;3.8;;
39294;SDS011;52361;52.100;5.248;2023-05-28T06:18:40;8.9;;;3.6;;
39294;SDS011;52361;52.100;5.248;2023-05-28T06:20:16;9.6;;;3.9;;
39294;SDS011;52361;52.100;5.248;2023-05-28T06:21:52;7.6;;;3.4;;
39294;SDS011;52361;52.100;5.248;2023-05-28T06:25:05;7.6;;;3.9;;
39294;SDS011;52361;52.100;5.248;2023-05-28T06:26:42;13.3;;;4.0;;
39294;SDS011;52361;52.100;5.248;2023-05-28T06:28:18;7.7;;;3.8;;
39294;SDS011;52361;52.100;5.248;2023-05-28T06:31:30;5.5;;;3.1;;
39294;SDS011;52361;52.100;5.248;2023-05-28T06:33:07;9.31;;;3.7;;
39294;SDS011;52361;52.100;5.248;2023-05-28T06:34:44;7.4;;;3.7;;
39294;SDS011;52361;52.100;5.248;2023-05-28T06:37:56;7.3;;;4.1;;
39294;SDS011;52361;52.100;5.248;2023-05-28T06:39:33;7.7;;;3.7;;
39294;SDS011;52361;52.100;5.248;2023-05-28T06:41:09;7.0;;;3.9;;
39294;SDS011;52361;52.100;5.248;2023-05-28T06:44:22;12.7;;;3.7;;
39294;SDS011;52361;52.100;5.248;2023-05-28T06:45:58;6.1;;;3.4;;
39294;SDS011;52361;52.100;5.248;2023-05-28T06:47:34;6.7;;;3.4;;
39294;SDS011;52361;52.100;5.248;2023-05-28T06:49:10;7.2;;;3.1;;
39294;SDS011;52361;52.100;5.248;2023-05-28T06:52:22;10.21;;;3.7;;
39294;SDS011;52361;52.100;5.248;2023-05-28T06:54:00;12.6;;;4.2;;
39294;SDS011;52361;52.100;5.248;2023-05-28T06:55:37;9.21;;;3.5;;
39294;SDS011;52361;52.100;5.248;2023-05-28T06:58:49;7.6;;;4.1;;
39294;SDS011;52361;52.100;5.248;2023-05-28T07:00:25;8.81;;;4.3;;
39294;SDS011;52361;52.100;5.248;2023-05-28T07:02:01;9.4;;;4.41;;
39294;SDS011;52361;52.100;5.248;2023-05-28T07:05:14;8.9;;;4.0;;
39294;SDS011;52361;52.100;5.248;2023-05-28T07:06:50;7.0;;;3.4;;
39294;SDS011;52361;52.100;5.248;2023-05-28T07:10:03;11.2;;;4.1;;
39294;SDS011;52361;52.100;5.248;2023-05-28T07:13:16;7.8;;;3.4;;
39294;SDS011;52361;52.100;5.248;2023-05-28T07:14:52;14.2;;;4.3;;
39294;SDS011;52361;52.100;5.248;2023-05-28T07:16:29;8.1;;;3.5;;
39294;SDS011;52361;52.100;5.248;2023-05-28T07:19:41;8.6;;;3.3;;
39294;SDS011;52361;52.100;5.248;2023-05-28T07:21:17;9.6;;;4.2;;
39294;SDS011;52361;52.100;5.248;2023-05-28T07:22:53;9.71;;;3.7;;
39294;SDS011;52361;52.100;5.248;2023-05-28T07:26:06;7.6;;;3.1;;
39294;SDS011;52361;52.100;5.248;2023-05-28T07:27:42;8.0;;;3.5;;
39294;SDS011;52361;52.100;5.248;2023-05-28T07:29:18;12.4;;;3.8;;
39294;SDS011;52361;52.100;5.248;2023-05-28T07:30:54;12.8;;;4.91;;
39294;SDS011;52361;52.100;5.248;2023-05-28T07:34:07;7.3;;;3.3;;
39294;SDS011;52361;52.100;5.248;2023-05-28T07:35:43;6.7;;;3.2;;
39294;SDS011;52361;52.100;5.248;2023-05-28T07:37:19;7.1;;;2.8;;
39294;SDS011;52361;52.100;5.248;2023-05-28T07:40:32;8.2;;;3.4;;
39294;SDS011;52361;52.100;5.248;2023-05-28T07:42:08;6.0;;;2.8;;
39294;SDS011;52361;52.100;5.248;2023-05-28T07:43:44;8.5;;;4.2;;
39294;SDS011;52361;52.100;5.248;2023-05-28T07:46:56;8.4;;;3.1;;
39294;SDS011;52361;52.100;5.248;2023-05-28T07:48:33;8.9;;;3.5;;
39294;SDS011;52361;52.100;5.248;2023-05-28T07:50:09;8.5;;;3.2;;
39294;SDS011;52361;52.100;5.248;2023-05-28T07:53:22;8.81;;;3.2;;
39294;SDS011;52361;52.100;5.248;2023-05-28T07:54:58;6.1;;;3.1;;
39294;SDS011;52361;52.100;5.248;2023-05-28T07:56:35;8.9;;;3.8;;
39294;SDS011;52361;52.100;5.248;2023-05-28T07:58:12;8.2;;;3.3;;
39294;SDS011;52361;52.100;5.248;2023-05-28T08:01:24;7.4;;;3.4;;
39294;SDS011;52361;52.100;5.248;2023-05-28T08:03:00;10.8;;;3.3;;
39294;SDS011;52361;52.100;5.248;2023-05-28T08:04:37;6.9;;;3.2;;
39294;SDS011;52361;52.100;5.248;2023-05-28T08:07:49;11.3;;;3.4;;
39294;SDS011;52361;52.100;5.248;2023-05-28T08:09:26;8.71;;;3.3;;
39294;SDS011;52361;52.100;5.248;2023-05-28T08:11:02;8.4;;;3.4;;
39294;SDS011;52361;52.100;5.248;2023-05-28T08:14:14;6.2;;;3.3;;
39294;SDS011;52361;52.100;5.248;2023-05-28T08:15:50;12.2;;;3.0;;
39294;SDS011;52361;52.100;5.248;2023-05-28T08:17:29;9.9;;;3.4;;
39294;SDS011;52361;52.100;5.248;2023-05-28T08:19:05;7.6;;;3.0;;
39294;SDS011;52361;52.100;5.248;2023-05-28T08:22:18;7.3;;;3.1;;
39294;SDS011;52361;52.100;5.248;2023-05-28T08:23:54;10.7;;;4.1;;
39294;SDS011;52361;52.100;5.248;2023-05-28T08:25:31;8.31;;;3.5;;
39294;SDS011;52361;52.100;5.248;2023-05-28T08:28:44;8.4;;;2.9;;
39294;SDS011;52361;52.100;5.248;2023-05-28T08:30:21;8.9;;;3.0;;
39294;SDS011;52361;52.100;5.248;2023-05-28T08:31:57;5.5;;;3.3;;
39294;SDS011;52361;52.100;5.248;2023-05-28T08:35:09;7.6;;;2.7;;
39294;SDS011;52361;52.100;5.248;2023-05-28T08:36:45;6.3;;;3.9;;
39294;SDS011;52361;52.100;5.248;2023-05-28T08:38:21;9.4;;;3.3;;
39294;SDS011;52361;52.100;5.248;2023-05-28T08:39:57;8.31;;;3.3;;
39294;SDS011;52361;52.100;5.248;2023-05-28T08:43:10;8.71;;;3.8;;
39294;SDS011;52361;52.100;5.248;2023-05-28T08:44:46;9.21;;;3.5;;
39294;SDS011;52361;52.100;5.248;2023-05-28T08:46:22;11.2;;;3.5;;
39294;SDS011;52361;52.100;5.248;2023-05-28T08:49:37;5.8;;;3.1;;
39294;SDS011;52361;52.100;5.248;2023-05-28T08:51:17;7.6;;;3.3;;
39294;SDS011;52361;52.100;5.248;2023-05-28T08:52:59;8.71;;;3.1;;
39294;SDS011;52361;52.100;5.248;2023-05-28T08:54:38;8.4;;;3.5;;
39294;SDS011;52361;52.100;5.248;2023-05-28T08:57:52;10.1;;;3.3;;
39294;SDS011;52361;52.100;5.248;2023-05-28T08:59:29;10.21;;;3.7;;
39294;SDS011;52361;52.100;5.248;2023-05-28T09:01:07;5.7;;;3.0;;
39294;SDS011;52361;52.100;5.248;2023-05-28T09:04:21;9.9;;;3.0;;
39294;SDS011;52361;52.100;5.248;2023-05-28T09:05:57;10.21;;;3.0;;
39294;SDS011;52361;52.100;5.248;2023-05-28T09:07:33;8.2;;;2.9;;
39294;SDS011;52361;52.100;5.248;2023-05-28T09:10:46;10.3;;;2.7;;
39294;SDS011;52361;52.100;5.248;2023-05-28T09:12:22;6.4;;;3.2;;
39294;SDS011;52361;52.100;5.248;2023-05-28T09:14:02;6.9;;;3.1;;
39294;SDS011;52361;52.100;5.248;2023-05-28T09:15:45;8.71;;;3.4;;
39294;SDS011;52361;52.100;5.248;2023-05-28T09:19:14;6.2;;;2.7;;
39294;SDS011;52361;52.100;5.248;2023-05-28T09:20:51;7.1;;;3.2;;
39294;SDS011;52361;52.100;5.248;2023-05-28T09:22:34;8.31;;;3.8;;
39294;SDS011;52361;52.100;5.248;2023-05-28T09:24:11;9.21;;;3.1;;
39294;SDS011;52361;52.100;5.248;2023-05-28T09:27:25;5.2;;;3.1;;
39294;SDS011;52361;52.100;5.248;2023-05-28T09:29:06;8.9;;;3.3;;
39294;SDS011;52361;52.100;5.248;2023-05-28T09:30:48;7.7;;;3.0;;
39294;SDS011;52361;52.100;5.248;2023-05-28T09:32:24;8.0;;;3.0;;
39294;SDS011;52361;52.100;5.248;2023-05-28T09:35:41;6.0;;;2.9;;
39294;SDS011;52361;52.100;5.248;2023-05-28T09:37:17;7.5;;;2.7;;
39294;SDS011;52361;52.100;5.248;2023-05-28T09:38:54;7.0;;;2.8;;
39294;SDS011;52361;52.100;5.248;2023-05-28T09:42:06;7.6;;;3.5;;
39294;SDS011;52361;52.100;5.248;2023-05-28T09:43:42;4.41;;;2.7;;
39294;SDS011;52361;52.100;5.248;2023-05-28T09:45:21;7.1;;;3.4;;
39294;SDS011;52361;52.100;5.248;2023-05-28T09:47:00;8.5;;;3.3;;
39294;SDS011;52361;52.100;5.248;2023-05-28T09:50:12;6.7;;;3.9;;
39294;SDS011;52361;52.100;5.248;2023-05-28T09:51:48;6.4;;;3.3;;
39294;SDS011;52361;52.100;5.248;2023-05-28T09:56:48;4.5;;;3.1;;
39294;SDS011;52361;52.100;5.248;2023-05-28T09:58:29;7.0;;;2.5;;
39294;SDS011;52361;52.100;5.248;2023-05-28T10:00:08;5.8;;;2.5;;
39294;SDS011;52361;52.100;5.248;2023-05-28T10:01:51;14.3;;;4.1;;
39294;SDS011;52361;52.100;5.248;2023-05-28T10:05:14;6.5;;;2.9;;
39294;SDS011;52361;52.100;5.248;2023-05-28T10:06:54;15.2;;;4.1;;
39294;SDS011;52361;52.100;5.248;2023-05-28T10:08:32;4.7;;;2.6;;
39294;SDS011;52361;52.100;5.248;2023-05-28T10:10:10;5.8;;;2.1;;
39294;SDS011;52361;52.100;5.248;2023-05-28T10:13:35;7.9;;;2.7;;
39294;SDS011;52361;52.100;5.248;2023-05-28T10:15:12;5.5;;;2.21;;
39294;SDS011;52361;52.100;5.248;2023-05-28T10:16:50;8.0;;;3.1;;
39294;SDS011;52361;52.100;5.248;2023-05-28T10:18:27;7.5;;;2.7;;
39294;SDS011;52361;52.100;5.248;2023-05-28T10:21:42;4.91;;;2.6;;
39294;SDS011;52361;52.100;5.248;2023-05-28T10:23:18;6.1;;;2.21;;
39294;SDS011;52361;52.100;5.248;2023-05-28T10:24:56;6.5;;;2.6;;
39294;SDS011;52361;52.100;5.248;2023-05-28T10:28:13;5.3;;;2.4;;
39294;SDS011;52361;52.100;5.248;2023-05-28T10:29:50;5.3;;;2.4;;
39294;SDS011;52361;52.100;5.248;2023-05-28T10:31:27;5.9;;;2.31;;
39294;SDS011;52361;52.100;5.248;2023-05-28T10:33:04;5.2;;;2.21;;
39294;SDS011;52361;52.100;5.248;2023-05-28T10:38:02;4.1;;;2.1;;
39294;SDS011;52361;52.100;5.248;2023-05-28T10:39:41;5.8;;;2.4;;
39294;SDS011;52361;52.100;5.248;2023-05-28T10:41:19;7.7;;;2.7;;
39294;SDS011;52361;52.100;5.248;2023-05-28T10:44:51;7.1;;;2.4;;
39294;SDS011;52361;52.100;5.248;2023-05-28T10:46:41;4.8;;;2.1;;
39294;SDS011;52361;52.100;5.248;2023-05-28T10:48:17;6.3;;;2.6;;
39294;SDS011;52361;52.100;5.248;2023-05-28T10:49:58;6.2;;;2.21;;
39294;SDS011;52361;52.100;5.248;2023-05-28T10:53:32;8.0;;;2.7;;
39294;SDS011;52361;52.100;5.248;2023-05-28T10:55:09;4.5;;;2.6;;
39294;SDS011;52361;52.100;5.248;2023-05-28T10:57:05;4.8;;;2.4;;
39294;SDS011;52361;52.100;5.248;2023-05-28T10:58:56;4.1;;;2.31;;
39294;SDS011;52361;52.100;5.248;2023-05-28T11:00:34;3.0;;;2.0;;
39294;SDS011;52361;52.100;5.248;2023-05-28T11:02:17;3.8;;;2.6;;
39294;SDS011;52361;52.100;5.248;2023-05-28T11:05:34;5.7;;;2.21;;
39294;SDS011;52361;52.100;5.248;2023-05-28T11:07:11;6.3;;;2.1;;
39294;SDS011;52361;52.100;5.248;2023-05-28T11:08:49;4.7;;;2.5;;
39294;SDS011;52361;52.100;5.248;2023-05-28T11:12:04;4.5;;;2.0;;
39294;SDS011;52361;52.100;5.248;2023-05-28T11:13:42;5.7;;;2.5;;
39294;SDS011;52361;52.100;5.248;2023-05-28T11:15:21;4.3;;;1.9;;
39294;SDS011;52361;52.100;5.248;2023-05-28T11:16:58;6.8;;;2.21;;
39294;SDS011;52361;52.100;5.248;2023-05-28T11:20:15;6.4;;;2.31;;
39294;SDS011;52361;52.100;5.248;2023-05-28T11:21:53;7.3;;;2.21;;
39294;SDS011;52361;52.100;5.248;2023-05-28T11:23:30;4.7;;;2.5;;
39294;SDS011;52361;52.100;5.248;2023-05-28T11:26:45;4.2;;;1.9;;
39294;SDS011;52361;52.100;5.248;2023-05-28T11:28:21;5.11;;;2.4;;
39294;SDS011;52361;52.100;5.248;2023-05-28T11:29:57;7.7;;;2.5;;
39294;SDS011;52361;52.100;5.248;2023-05-28T11:31:38;5.8;;;2.21;;
39294;SDS011;52361;52.100;5.248;2023-05-28T11:34:52;6.2;;;2.21;;
39294;SDS011;52361;52.100;5.248;2023-05-28T11:36:29;6.1;;;2.31;;
39294;SDS011;52361;52.100;5.248;2023-05-28T11:38:06;4.41;;;2.21;;
39294;SDS011;52361;52.100;5.248;2023-05-28T11:41:26;6.3;;;2.4;;
39294;SDS011;52361;52.100;5.248;2023-05-28T11:43:02;7.9;;;2.6;;
39294;SDS011;52361;52.100;5.248;2023-05-28T11:44:42;6.3;;;2.8;;
39294;SDS011;52361;52.100;5.248;2023-05-28T11:46:21;5.4;;;2.31;;
39294;SDS011;52361;52.100;5.248;2023-05-28T11:49:36;4.91;;;2.31;;
39294;SDS011;52361;52.100;5.248;2023-05-28T11:51:12;4.3;;;2.7;;
39294;SDS011;52361;52.100;5.248;2023-05-28T11:52:49;5.8;;;2.21;;
39294;SDS011;52361;52.100;5.248;2023-05-28T11:56:01;7.1;;;2.6;;
39294;SDS011;52361;52.100;5.248;2023-05-28T11:57:39;5.6;;;2.1;;
39294;SDS011;52361;52.100;5.248;2023-05-28T11:59:27;6.2;;;2.7;;
39294;SDS011;52361;52.100;5.248;2023-05-28T12:01:03;7.3;;;3.0;;
39294;SDS011;52361;52.100;5.248;2023-05-28T12:04:21;7.9;;;2.5;;
39294;SDS011;52361;52.100;5.248;2023-05-28T12:05:59;6.2;;;3.8;;
39294;SDS011;52361;52.100;5.248;2023-05-28T12:07:36;5.6;;;2.6;;
39294;SDS011;52361;52.100;5.248;2023-05-28T12:09:12;8.31;;;3.5;;
39294;SDS011;52361;52.100;5.248;2023-05-28T12:12:26;11.1;;;2.8;;
39294;SDS011;52361;52.100;5.248;2023-05-28T12:14:10;5.2;;;2.21;;
39294;SDS011;52361;52.100;5.248;2023-05-28T12:15:47;8.9;;;2.9;;
39294;SDS011;52361;52.100;5.248;2023-05-28T12:19:00;5.9;;;2.6;;
39294;SDS011;52361;52.100;5.248;2023-05-28T12:20:39;6.6;;;2.4;;
39294;SDS011;52361;52.100;5.248;2023-05-28T12:22:16;6.1;;;2.7;;
39294;SDS011;52361;52.100;5.248;2023-05-28T12:23:52;11.3;;;3.2;;
39294;SDS011;52361;52.100;5.248;2023-05-28T12:27:13;9.81;;;4.1;;
39294;SDS011;52361;52.100;5.248;2023-05-28T12:28:50;9.1;;;2.7;;
39294;SDS011;52361;52.100;5.248;2023-05-28T12:30:26;5.8;;;2.8;;
39294;SDS011;52361;52.100;5.248;2023-05-28T12:33:40;4.61;;;2.1;;
39294;SDS011;52361;52.100;5.248;2023-05-28T12:36:52;8.2;;;2.31;;
39294;SDS011;52361;52.100;5.248;2023-05-28T12:38:29;3.9;;;2.21;;
39294;SDS011;52361;52.100;5.248;2023-05-28T12:41:42;5.8;;;3.1;;
39294;SDS011;52361;52.100;5.248;2023-05-28T12:43:18;4.5;;;2.8;;
39294;SDS011;52361;52.100;5.248;2023-05-28T12:44:55;6.8;;;2.5;;
39294;SDS011;52361;52.100;5.248;2023-05-28T12:48:08;10.4;;;3.4;;
39294;SDS011;52361;52.100;5.248;2023-05-28T12:49:44;5.7;;;2.7;;
39294;SDS011;52361;52.100;5.248;2023-05-28T12:51:20;7.1;;;2.5;;
39294;SDS011;52361;52.100;5.248;2023-05-28T12:54:33;7.2;;;2.8;;
39294;SDS011;52361;52.100;5.248;2023-05-28T12:56:09;12.7;;;3.2;;
39294;SDS011;52361;52.100;5.248;2023-05-28T12:57:45;7.0;;;2.8;;
39294;SDS011;52361;52.100;5.248;2023-05-28T12:59:22;7.0;;;2.7;;
39294;SDS011;52361;52.100;5.248;2023-05-28T13:02:36;9.6;;;3.1;;
39294;SDS011;52361;52.100;5.248;2023-05-28T13:04:12;10.21;;;3.2;;